sensor_id;sensor_type;location;lat;lon;timestamp;temperature;humidity
52943;DHT22;38809;53.300;6.614;2022-11-15T00:00:47;7.70;99.90
52943;DHT22;38809;53.300;6.614;2022-11-15T00:03:14;7.70;99.90
52943;DHT22;38809;53.300;6.614;2022-11-15T00:05:40;7.70;99.90
52943;DHT22;38809;53.300;6.614;2022-11-15T00:08:06;7.70;99.90
52943;DHT22;38809;53.300;6.614;2022-11-15T00:10:32;7.70;99.90
52943;DHT22;38809;53.300;6.614;2022-11-15T00:12:57;7.70;99.90
52943;DHT22;38809;53.300;6.614;2022-11-15T00:15:23;6.40;99.90
52943;DHT22;38809;53.300;6.614;2022-11-15T00:17:49;8.00;99.90
52943;DHT22;38809;53.300;6.614;2022-11-15T00:20:17;7.70;99.90
52943;DHT22;38809;53.300;6.614;2022-11-15T00:22:42;7.70;99.90
52943;DHT22;38809;53.300;6.614;2022-11-15T00:25:08;7.90;99.90
52943;DHT22;38809;53.300;6.614;2022-11-15T00:27:34;7.60;99.90
52943;DHT22;38809;53.300;6.614;2022-11-15T00:30:00;7.50;99.90
52943;DHT22;38809;53.300;6.614;2022-11-15T00:32:26;7.50;99.90
52943;DHT22;38809;53.300;6.614;2022-11-15T00:34:51;7.50;99.90
52943;DHT22;38809;53.300;6.614;2022-11-15T00:37:17;7.40;99.90
52943;DHT22;38809;53.300;6.614;2022-11-15T00:39:43;7.30;99.90
52943;DHT22;38809;53.300;6.614;2022-11-15T00:42:08;7.80;99.90
52943;DHT22;38809;53.300;6.614;2022-11-15T00:44:34;7.30;99.90
52943;DHT22;38809;53.300;6.614;2022-11-15T00:47:00;7.90;99.90
52943;DHT22;38809;53.300;6.614;2022-11-15T00:49:25;7.00;99.90
52943;DHT22;38809;53.300;6.614;2022-11-15T00:51:51;6.90;99.90
52943;DHT22;38809;53.300;6.614;2022-11-15T00:54:16;8.10;99.90
52943;DHT22;38809;53.300;6.614;2022-11-15T00:56:42;6.90;99.90
52943;DHT22;38809;53.300;6.614;2022-11-15T00:59:08;6.90;99.90
52943;DHT22;38809;53.300;6.614;2022-11-15T01:01:33;6.90;99.90
52943;DHT22;38809;53.300;6.614;2022-11-15T01:03:59;7.50;99.90
52943;DHT22;38809;53.300;6.614;2022-11-15T01:06:24;7.00;99.90
52943;DHT22;38809;53.300;6.614;2022-11-15T01:08:50;7.00;99.90
52943;DHT22;38809;53.300;6.614;2022-11-15T01:11:16;7.10;99.90
52943;DHT22;38809;53.300;6.614;2022-11-15T01:13:42;7.10;99.90
52943;DHT22;38809;53.300;6.614;2022-11-15T01:16:09;7.00;99.90
52943;DHT22;38809;53.300;6.614;2022-11-15T01:18:35;6.90;99.90
52943;DHT22;38809;53.300;6.614;2022-11-15T01:21:08;6.90;99.90
52943;DHT22;38809;53.300;6.614;2022-11-15T01:23:34;6.90;99.90
52943;DHT22;38809;53.300;6.614;2022-11-15T01:26:01;5.90;99.90
52943;DHT22;38809;53.300;6.614;2022-11-15T01:28:32;6.90;99.90
52943;DHT22;38809;53.300;6.614;2022-11-15T01:31:03;6.90;99.90
52943;DHT22;38809;53.300;6.614;2022-11-15T01:33:29;6.80;99.90
52943;DHT22;38809;53.300;6.614;2022-11-15T01:35:55;6.70;99.90
52943;DHT22;38809;53.300;6.614;2022-11-15T01:38:22;6.60;99.90
52943;DHT22;38809;53.300;6.614;2022-11-15T01:40:48;6.70;99.90
52943;DHT22;38809;53.300;6.614;2022-11-15T01:43:25;6.60;99.90
52943;DHT22;38809;53.300;6.614;2022-11-15T01:48:38;6.70;99.90
52943;DHT22;38809;53.300;6.614;2022-11-15T01:51:07;7.10;99.90
52943;DHT22;38809;53.300;6.614;2022-11-15T01:53:37;6.90;99.90
52943;DHT22;38809;53.300;6.614;2022-11-15T01:56:06;7.40;99.90
52943;DHT22;38809;53.300;6.614;2022-11-15T01:58:34;7.00;99.90
52943;DHT22;38809;53.300;6.614;2022-11-15T02:01:00;7.00;99.90
52943;DHT22;38809;53.300;6.614;2022-11-15T02:04:32;7.10;99.90
52943;DHT22;38809;53.300;6.614;2022-11-15T02:06:25;7.10;99.90
52943;DHT22;38809;53.300;6.614;2022-11-15T02:08:51;7.20;99.90
52943;DHT22;38809;53.300;6.614;2022-11-15T02:11:17;7.20;99.90
52943;DHT22;38809;53.300;6.614;2022-11-15T02:13:43;7.20;99.90
52943;DHT22;38809;53.300;6.614;2022-11-15T02:18:50;7.30;99.90
52943;DHT22;38809;53.300;6.614;2022-11-15T02:21:32;7.50;99.90
52943;DHT22;38809;53.300;6.614;2022-11-15T02:24:27;7.20;99.90
52943;DHT22;38809;53.300;6.614;2022-11-15T02:27:42;7.30;99.90
52943;DHT22;38809;53.300;6.614;2022-11-15T02:38:44;7.30;99.90
52943;DHT22;38809;53.300;6.614;2022-11-15T02:41:16;7.40;99.90
52943;DHT22;38809;53.300;6.614;2022-11-15T02:44:08;8.40;99.90
52943;DHT22;38809;53.300;6.614;2022-11-15T02:46:57;7.40;99.90
52943;DHT22;38809;53.300;6.614;2022-11-15T02:49:50;7.40;99.90
52943;DHT22;38809;53.300;6.614;2022-11-15T02:52:19;7.40;99.90
52943;DHT22;38809;53.300;6.614;2022-11-15T02:54:59;7.40;99.90
52943;DHT22;38809;53.300;6.614;2022-11-15T03:00:14;7.40;99.90
52943;DHT22;38809;53.300;6.614;2022-11-15T03:05:24;7.80;99.90
52943;DHT22;38809;53.300;6.614;2022-11-15T03:08:15;7.40;99.90
52943;DHT22;38809;53.300;6.614;2022-11-15T03:13:26;7.50;99.90
52943;DHT22;38809;53.300;6.614;2022-11-15T03:16:13;7.50;99.90
52943;DHT22;38809;53.300;6.614;2022-11-15T03:21:30;7.40;99.90
52943;DHT22;38809;53.300;6.614;2022-11-15T03:23:58;7.50;99.90
52943;DHT22;38809;53.300;6.614;2022-11-15T03:26:27;7.50;99.90
52943;DHT22;38809;53.300;6.614;2022-11-15T03:29:09;7.60;99.90
52943;DHT22;38809;53.300;6.614;2022-11-15T03:31:41;7.50;99.90
52943;DHT22;38809;53.300;6.614;2022-11-15T03:37:05;7.50;99.90
52943;DHT22;38809;53.300;6.614;2022-11-15T03:39:32;7.70;99.90
52943;DHT22;38809;53.300;6.614;2022-11-15T03:47:45;7.60;99.90
52943;DHT22;38809;53.300;6.614;2022-11-15T03:50:15;7.60;99.90
52943;DHT22;38809;53.300;6.614;2022-11-15T03:52:42;7.60;99.90
52943;DHT22;38809;53.300;6.614;2022-11-15T03:55:13;7.60;99.90
52943;DHT22;38809;53.300;6.614;2022-11-15T03:57:40;7.60;99.90
52943;DHT22;38809;53.300;6.614;2022-11-15T04:00:06;7.80;99.90
52943;DHT22;38809;53.300;6.614;2022-11-15T04:02:32;7.60;99.90
52943;DHT22;38809;53.300;6.614;2022-11-15T04:04:58;7.60;99.90
52943;DHT22;38809;53.300;6.614;2022-11-15T04:07:23;7.70;99.90
52943;DHT22;38809;53.300;6.614;2022-11-15T04:09:49;7.60;99.90
52943;DHT22;38809;53.300;6.614;2022-11-15T04:12:35;7.60;99.90
52943;DHT22;38809;53.300;6.614;2022-11-15T04:15:16;7.60;99.90
52943;DHT22;38809;53.300;6.614;2022-11-15T04:17:51;8.00;99.90
52943;DHT22;38809;53.300;6.614;2022-11-15T04:20:19;7.70;99.90
52943;DHT22;38809;53.300;6.614;2022-11-15T04:23:15;7.70;99.90
52943;DHT22;38809;53.300;6.614;2022-11-15T04:26:03;7.70;99.90
52943;DHT22;38809;53.300;6.614;2022-11-15T04:28:29;7.70;99.90
52943;DHT22;38809;53.300;6.614;2022-11-15T04:30:54;7.80;99.90
52943;DHT22;38809;53.300;6.614;2022-11-15T04:33:21;7.80;99.90
52943;DHT22;38809;53.300;6.614;2022-11-15T04:35:47;7.70;99.90
52943;DHT22;38809;53.300;6.614;2022-11-15T04:38:33;7.80;99.90
52943;DHT22;38809;53.300;6.614;2022-11-15T04:40:59;7.80;99.90
52943;DHT22;38809;53.300;6.614;2022-11-15T04:43:25;7.80;99.90
52943;DHT22;38809;53.300;6.614;2022-11-15T04:45:50;7.90;99.90
52943;DHT22;38809;53.300;6.614;2022-11-15T04:48:16;8.50;99.90
52943;DHT22;38809;53.300;6.614;2022-11-15T04:50:42;7.90;99.90
52943;DHT22;38809;53.300;6.614;2022-11-15T04:53:07;7.90;99.90
52943;DHT22;38809;53.300;6.614;2022-11-15T04:55:33;7.90;99.90
52943;DHT22;38809;53.300;6.614;2022-11-15T04:58:00;7.90;99.90
52943;DHT22;38809;53.300;6.614;2022-11-15T05:00:26;7.90;99.90
52943;DHT22;38809;53.300;6.614;2022-11-15T05:02:52;7.90;99.90
52943;DHT22;38809;53.300;6.614;2022-11-15T05:05:37;7.90;99.90
52943;DHT22;38809;53.300;6.614;2022-11-15T05:08:03;8.30;99.90
52943;DHT22;38809;53.300;6.614;2022-11-15T05:10:28;8.00;99.90
52943;DHT22;38809;53.300;6.614;2022-11-15T05:12:54;8.00;99.90
52943;DHT22;38809;53.300;6.614;2022-11-15T05:15:20;8.00;99.90
52943;DHT22;38809;53.300;6.614;2022-11-15T05:17:45;8.90;99.90
52943;DHT22;38809;53.300;6.614;2022-11-15T05:20:11;8.00;99.90
52943;DHT22;38809;53.300;6.614;2022-11-15T05:22:37;8.00;99.90
52943;DHT22;38809;53.300;6.614;2022-11-15T05:25:03;8.10;99.90
52943;DHT22;38809;53.300;6.614;2022-11-15T05:27:29;8.00;99.90
52943;DHT22;38809;53.300;6.614;2022-11-15T05:29:55;8.10;99.90
52943;DHT22;38809;53.300;6.614;2022-11-15T05:32:20;8.10;99.90
52943;DHT22;38809;53.300;6.614;2022-11-15T05:34:46;8.10;99.90
52943;DHT22;38809;53.300;6.614;2022-11-15T05:37:13;8.10;99.90
52943;DHT22;38809;53.300;6.614;2022-11-15T05:39:39;8.10;99.90
52943;DHT22;38809;53.300;6.614;2022-11-15T05:42:14;8.00;99.90
52943;DHT22;38809;53.300;6.614;2022-11-15T05:44:43;8.10;99.90
52943;DHT22;38809;53.300;6.614;2022-11-15T05:47:14;8.30;99.90
52943;DHT22;38809;53.300;6.614;2022-11-15T05:49:43;8.10;99.90
52943;DHT22;38809;53.300;6.614;2022-11-15T05:52:11;8.90;99.90
52943;DHT22;38809;53.300;6.614;2022-11-15T05:54:37;8.30;99.90
52943;DHT22;38809;53.300;6.614;2022-11-15T05:57:04;8.20;99.90
52943;DHT22;38809;53.300;6.614;2022-11-15T05:59:31;8.20;99.90
52943;DHT22;38809;53.300;6.614;2022-11-15T06:01:57;8.20;99.90
52943;DHT22;38809;53.300;6.614;2022-11-15T06:04:23;8.20;99.90
52943;DHT22;38809;53.300;6.614;2022-11-15T06:06:48;8.30;99.90
52943;DHT22;38809;53.300;6.614;2022-11-15T06:09:14;8.20;99.90
52943;DHT22;38809;53.300;6.614;2022-11-15T06:11:39;8.60;99.90
52943;DHT22;38809;53.300;6.614;2022-11-15T06:14:05;8.30;99.90
52943;DHT22;38809;53.300;6.614;2022-11-15T06:16:31;8.30;99.90
52943;DHT22;38809;53.300;6.614;2022-11-15T06:18:57;8.30;99.90
52943;DHT22;38809;53.300;6.614;2022-11-15T06:21:22;8.30;99.90
52943;DHT22;38809;53.300;6.614;2022-11-15T06:23:48;8.60;99.90
52943;DHT22;38809;53.300;6.614;2022-11-15T06:26:14;8.30;99.90
52943;DHT22;38809;53.300;6.614;2022-11-15T06:28:39;8.30;99.90
52943;DHT22;38809;53.300;6.614;2022-11-15T06:31:08;8.30;99.90
52943;DHT22;38809;53.300;6.614;2022-11-15T06:33:34;9.50;99.90
52943;DHT22;38809;53.300;6.614;2022-11-15T06:36:02;8.50;99.90
52943;DHT22;38809;53.300;6.614;2022-11-15T06:38:28;8.40;99.90
52943;DHT22;38809;53.300;6.614;2022-11-15T06:40:54;8.40;99.90
52943;DHT22;38809;53.300;6.614;2022-11-15T06:43:19;8.50;99.90
52943;DHT22;38809;53.300;6.614;2022-11-15T06:45:45;8.40;99.90
52943;DHT22;38809;53.300;6.614;2022-11-15T06:48:10;8.50;99.90
52943;DHT22;38809;53.300;6.614;2022-11-15T06:50:36;8.50;99.90
52943;DHT22;38809;53.300;6.614;2022-11-15T06:53:03;8.50;99.90
52943;DHT22;38809;53.300;6.614;2022-11-15T06:55:29;8.60;99.90
52943;DHT22;38809;53.300;6.614;2022-11-15T06:57:55;8.60;99.90
52943;DHT22;38809;53.300;6.614;2022-11-15T07:00:21;8.60;99.90
52943;DHT22;38809;53.300;6.614;2022-11-15T07:02:47;8.90;99.90
52943;DHT22;38809;53.300;6.614;2022-11-15T07:05:14;9.00;99.90
52943;DHT22;38809;53.300;6.614;2022-11-15T07:07:40;8.60;99.90
52943;DHT22;38809;53.300;6.614;2022-11-15T07:10:06;8.60;99.90
52943;DHT22;38809;53.300;6.614;2022-11-15T07:12:32;8.70;99.90
52943;DHT22;38809;53.300;6.614;2022-11-15T07:14:58;8.70;99.90
52943;DHT22;38809;53.300;6.614;2022-11-15T07:17:24;8.80;99.90
52943;DHT22;38809;53.300;6.614;2022-11-15T07:19:49;8.70;99.90
52943;DHT22;38809;53.300;6.614;2022-11-15T07:22:15;8.90;99.90
52943;DHT22;38809;53.300;6.614;2022-11-15T07:24:41;8.80;99.90
52943;DHT22;38809;53.300;6.614;2022-11-15T07:27:07;8.90;99.90
52943;DHT22;38809;53.300;6.614;2022-11-15T07:29:32;8.90;99.90
52943;DHT22;38809;53.300;6.614;2022-11-15T07:31:58;9.00;99.90
52943;DHT22;38809;53.300;6.614;2022-11-15T07:34:24;9.30;99.90
52943;DHT22;38809;53.300;6.614;2022-11-15T07:36:50;9.00;99.90
52943;DHT22;38809;53.300;6.614;2022-11-15T07:39:15;9.00;99.90
52943;DHT22;38809;53.300;6.614;2022-11-15T07:41:41;9.10;99.90
52943;DHT22;38809;53.300;6.614;2022-11-15T07:44:08;9.10;99.90
52943;DHT22;38809;53.300;6.614;2022-11-15T07:46:34;9.20;99.90
52943;DHT22;38809;53.300;6.614;2022-11-15T07:49:00;9.20;99.90
52943;DHT22;38809;53.300;6.614;2022-11-15T07:51:25;8.40;99.90
52943;DHT22;38809;53.300;6.614;2022-11-15T07:53:51;9.30;99.90
52943;DHT22;38809;53.300;6.614;2022-11-15T07:56:17;10.00;99.90
52943;DHT22;38809;53.300;6.614;2022-11-15T07:58:45;9.40;99.90
52943;DHT22;38809;53.300;6.614;2022-11-15T08:01:10;9.50;99.90
52943;DHT22;38809;53.300;6.614;2022-11-15T08:03:37;9.50;99.90
52943;DHT22;38809;53.300;6.614;2022-11-15T08:06:03;9.50;99.90
52943;DHT22;38809;53.300;6.614;2022-11-15T08:08:28;9.50;99.90
52943;DHT22;38809;53.300;6.614;2022-11-15T08:10:54;9.60;99.90
52943;DHT22;38809;53.300;6.614;2022-11-15T08:13:22;9.60;99.90
52943;DHT22;38809;53.300;6.614;2022-11-15T08:15:48;9.70;99.90
52943;DHT22;38809;53.300;6.614;2022-11-15T08:18:15;9.70;99.90
52943;DHT22;38809;53.300;6.614;2022-11-15T08:20:42;9.70;99.90
52943;DHT22;38809;53.300;6.614;2022-11-15T08:23:10;9.80;99.90
52943;DHT22;38809;53.300;6.614;2022-11-15T08:25:37;9.70;99.90
52943;DHT22;38809;53.300;6.614;2022-11-15T08:28:05;9.80;99.90
52943;DHT22;38809;53.300;6.614;2022-11-15T08:30:36;10.10;99.90
52943;DHT22;38809;53.300;6.614;2022-11-15T08:33:02;9.90;99.90
52943;DHT22;38809;53.300;6.614;2022-11-15T08:35:28;9.90;99.90
52943;DHT22;38809;53.300;6.614;2022-11-15T08:37:54;10.00;99.90
52943;DHT22;38809;53.300;6.614;2022-11-15T08:40:20;9.90;99.90
52943;DHT22;38809;53.300;6.614;2022-11-15T08:42:47;10.00;99.90
52943;DHT22;38809;53.300;6.614;2022-11-15T08:45:13;10.20;99.90
52943;DHT22;38809;53.300;6.614;2022-11-15T08:47:38;10.00;99.90
52943;DHT22;38809;53.300;6.614;2022-11-15T08:50:05;10.30;99.90
52943;DHT22;38809;53.300;6.614;2022-11-15T08:52:31;10.10;99.90
52943;DHT22;38809;53.300;6.614;2022-11-15T08:54:57;10.20;99.90
52943;DHT22;38809;53.300;6.614;2022-11-15T08:57:23;10.20;99.90
52943;DHT22;38809;53.300;6.614;2022-11-15T08:59:49;10.20;99.90
52943;DHT22;38809;53.300;6.614;2022-11-15T09:02:14;10.20;99.90
52943;DHT22;38809;53.300;6.614;2022-11-15T09:04:41;10.30;99.90
52943;DHT22;38809;53.300;6.614;2022-11-15T09:07:09;10.30;99.90
52943;DHT22;38809;53.300;6.614;2022-11-15T09:09:35;10.30;99.90
52943;DHT22;38809;53.300;6.614;2022-11-15T09:12:01;10.30;99.90
52943;DHT22;38809;53.300;6.614;2022-11-15T09:14:27;10.40;99.90
52943;DHT22;38809;53.300;6.614;2022-11-15T09:16:52;10.50;99.90
52943;DHT22;38809;53.300;6.614;2022-11-15T09:19:18;10.60;99.90
52943;DHT22;38809;53.300;6.614;2022-11-15T09:21:43;10.60;99.90
52943;DHT22;38809;53.300;6.614;2022-11-15T09:24:09;10.60;99.90
52943;DHT22;38809;53.300;6.614;2022-11-15T09:26:35;10.70;99.90
52943;DHT22;38809;53.300;6.614;2022-11-15T09:29:01;10.70;99.90
52943;DHT22;38809;53.300;6.614;2022-11-15T09:31:27;10.70;99.90
52943;DHT22;38809;53.300;6.614;2022-11-15T09:33:53;10.70;99.90
52943;DHT22;38809;53.300;6.614;2022-11-15T09:36:18;10.80;99.90
52943;DHT22;38809;53.300;6.614;2022-11-15T09:38:44;10.80;99.90
52943;DHT22;38809;53.300;6.614;2022-11-15T09:44:26;10.90;99.90
52943;DHT22;38809;53.300;6.614;2022-11-15T09:49:45;11.00;99.90
52943;DHT22;38809;53.300;6.614;2022-11-15T09:52:11;11.20;99.90
52943;DHT22;38809;53.300;6.614;2022-11-15T09:54:48;11.10;99.90
52943;DHT22;38809;53.300;6.614;2022-11-15T10:00:05;11.10;99.90
52943;DHT22;38809;53.300;6.614;2022-11-15T10:02:51;11.10;99.90
52943;DHT22;38809;53.300;6.614;2022-11-15T10:05:22;11.20;99.90
52943;DHT22;38809;53.300;6.614;2022-11-15T10:08:17;11.20;99.90
52943;DHT22;38809;53.300;6.614;2022-11-15T10:10:58;12.30;99.90
52943;DHT22;38809;53.300;6.614;2022-11-15T10:13:34;11.30;99.90
52943;DHT22;38809;53.300;6.614;2022-11-15T10:16:25;11.30;99.90
52943;DHT22;38809;53.300;6.614;2022-11-15T10:24:48;11.30;99.90
52943;DHT22;38809;53.300;6.614;2022-11-15T10:27:17;11.30;99.90
52943;DHT22;38809;53.300;6.614;2022-11-15T10:29:48;11.30;99.90
52943;DHT22;38809;53.300;6.614;2022-11-15T10:32:17;11.40;99.90
52943;DHT22;38809;53.300;6.614;2022-11-15T10:34:43;11.30;99.90
52943;DHT22;38809;53.300;6.614;2022-11-15T10:37:09;11.40;99.90
52943;DHT22;38809;53.300;6.614;2022-11-15T10:39:35;11.40;99.90
52943;DHT22;38809;53.300;6.614;2022-11-15T10:42:27;11.40;99.90
52943;DHT22;38809;53.300;6.614;2022-11-15T10:44:54;11.40;99.90
52943;DHT22;38809;53.300;6.614;2022-11-15T10:47:21;11.40;99.90
52943;DHT22;38809;53.300;6.614;2022-11-15T10:49:55;11.40;99.90
52943;DHT22;38809;53.300;6.614;2022-11-15T10:52:21;11.40;99.90
52943;DHT22;38809;53.300;6.614;2022-11-15T10:57:32;11.50;99.90
52943;DHT22;38809;53.300;6.614;2022-11-15T11:02:57;11.50;99.90
52943;DHT22;38809;53.300;6.614;2022-11-15T11:05:34;11.70;99.90
52943;DHT22;38809;53.300;6.614;2022-11-15T11:10:37;11.50;99.90
52943;DHT22;38809;53.300;6.614;2022-11-15T11:15:54;11.40;99.90
52943;DHT22;38809;53.300;6.614;2022-11-15T11:26:55;11.40;99.90
52943;DHT22;38809;53.300;6.614;2022-11-15T11:37:50;11.60;99.90
52943;DHT22;38809;53.300;6.614;2022-11-15T11:50:37;11.60;99.90
52943;DHT22;38809;53.300;6.614;2022-11-15T11:53:15;11.70;99.90
52943;DHT22;38809;53.300;6.614;2022-11-15T11:55:45;11.70;99.90
52943;DHT22;38809;53.300;6.614;2022-11-15T12:00:42;11.90;99.90
52943;DHT22;38809;53.300;6.614;2022-11-15T12:03:35;12.00;99.90
52943;DHT22;38809;53.300;6.614;2022-11-15T12:06:36;12.20;99.90
52943;DHT22;38809;53.300;6.614;2022-11-15T12:09:21;12.30;99.90
52943;DHT22;38809;53.300;6.614;2022-11-15T12:12:07;12.20;99.90
52943;DHT22;38809;53.300;6.614;2022-11-15T12:14:51;12.20;99.90
52943;DHT22;38809;53.300;6.614;2022-11-15T12:17:24;12.30;99.90
52943;DHT22;38809;53.300;6.614;2022-11-15T12:19:55;12.20;99.90
52943;DHT22;38809;53.300;6.614;2022-11-15T12:25:33;12.10;99.90
52943;DHT22;38809;53.300;6.614;2022-11-15T12:31:02;12.20;99.90
52943;DHT22;38809;53.300;6.614;2022-11-15T12:36:08;12.20;99.90
52943;DHT22;38809;53.300;6.614;2022-11-15T12:38:58;12.20;99.90
52943;DHT22;38809;53.300;6.614;2022-11-15T13:00:00;11.80;99.90
52943;DHT22;38809;53.300;6.614;2022-11-15T13:17:49;11.70;99.90
52943;DHT22;38809;53.300;6.614;2022-11-15T13:30:37;12.20;99.90
52943;DHT22;38809;53.300;6.614;2022-11-15T13:35:55;12.20;99.90
52943;DHT22;38809;53.300;6.614;2022-11-15T13:38:30;12.10;99.90
52943;DHT22;38809;53.300;6.614;2022-11-15T13:40:57;12.10;99.90
52943;DHT22;38809;53.300;6.614;2022-11-15T13:43:34;12.00;99.90
52943;DHT22;38809;53.300;6.614;2022-11-15T13:48:47;11.90;99.90
52943;DHT22;38809;53.300;6.614;2022-11-15T13:51:20;11.90;99.90
52943;DHT22;38809;53.300;6.614;2022-11-15T13:53:54;11.80;99.90
52943;DHT22;38809;53.300;6.614;2022-11-15T13:56:21;11.80;99.90
52943;DHT22;38809;53.300;6.614;2022-11-15T13:58:47;11.80;99.90
52943;DHT22;38809;53.300;6.614;2022-11-15T14:01:18;11.70;99.90
52943;DHT22;38809;53.300;6.614;2022-11-15T14:03:57;11.70;99.90
52943;DHT22;38809;53.300;6.614;2022-11-15T14:06:25;11.70;99.90
52943;DHT22;38809;53.300;6.614;2022-11-15T14:11:36;11.60;99.90
52943;DHT22;38809;53.300;6.614;2022-11-15T14:16:43;11.70;99.90
52943;DHT22;38809;53.300;6.614;2022-11-15T14:19:12;11.40;99.90
52943;DHT22;38809;53.300;6.614;2022-11-15T14:22:12;11.40;99.90
52943;DHT22;38809;53.300;6.614;2022-11-15T14:24:40;11.30;99.90
52943;DHT22;38809;53.300;6.614;2022-11-15T14:27:27;11.20;99.90
52943;DHT22;38809;53.300;6.614;2022-11-15T14:29:54;11.10;99.90
52943;DHT22;38809;53.300;6.614;2022-11-15T14:32:21;11.10;99.90
52943;DHT22;38809;53.300;6.614;2022-11-15T14:34:49;11.00;99.90
52943;DHT22;38809;53.300;6.614;2022-11-15T14:37:28;11.00;99.90
52943;DHT22;38809;53.300;6.614;2022-11-15T14:39:54;11.00;99.90
52943;DHT22;38809;53.300;6.614;2022-11-15T14:42:21;10.90;99.90
52943;DHT22;38809;53.300;6.614;2022-11-15T14:44:50;10.80;99.90
52943;DHT22;38809;53.300;6.614;2022-11-15T14:47:16;10.80;99.90
52943;DHT22;38809;53.300;6.614;2022-11-15T14:49:42;10.70;99.90
52943;DHT22;38809;53.300;6.614;2022-11-15T14:52:24;10.60;99.90
52943;DHT22;38809;53.300;6.614;2022-11-15T14:54:51;10.60;99.90
52943;DHT22;38809;53.300;6.614;2022-11-15T14:57:17;10.80;99.90
52943;DHT22;38809;53.300;6.614;2022-11-15T14:59:42;10.50;99.90
52943;DHT22;38809;53.300;6.614;2022-11-15T15:02:15;10.40;99.90
52943;DHT22;38809;53.300;6.614;2022-11-15T15:04:41;10.40;99.90
52943;DHT22;38809;53.300;6.614;2022-11-15T15:07:07;10.40;99.90
52943;DHT22;38809;53.300;6.614;2022-11-15T15:09:33;10.30;99.90
52943;DHT22;38809;53.300;6.614;2022-11-15T15:11:58;10.30;99.90
52943;DHT22;38809;53.300;6.614;2022-11-15T15:14:24;10.50;99.90
52943;DHT22;38809;53.300;6.614;2022-11-15T15:16:50;10.10;99.90
52943;DHT22;38809;53.300;6.614;2022-11-15T15:19:15;10.10;99.90
52943;DHT22;38809;53.300;6.614;2022-11-15T15:21:41;10.00;99.90
52943;DHT22;38809;53.300;6.614;2022-11-15T15:24:15;9.90;99.90
52943;DHT22;38809;53.300;6.614;2022-11-15T15:26:41;9.90;99.90
52943;DHT22;38809;53.300;6.614;2022-11-15T15:29:09;9.90;99.90
52943;DHT22;38809;53.300;6.614;2022-11-15T15:31:35;9.80;99.90
52943;DHT22;38809;53.300;6.614;2022-11-15T15:34:01;9.70;99.90
52943;DHT22;38809;53.300;6.614;2022-11-15T15:36:26;9.70;99.90
52943;DHT22;38809;53.300;6.614;2022-11-15T15:38:52;9.70;99.90
52943;DHT22;38809;53.300;6.614;2022-11-15T15:41:18;9.60;99.90
52943;DHT22;38809;53.300;6.614;2022-11-15T15:43:44;9.50;99.90
52943;DHT22;38809;53.300;6.614;2022-11-15T15:46:11;9.60;99.90
52943;DHT22;38809;53.300;6.614;2022-11-15T15:48:37;9.80;99.90
52943;DHT22;38809;53.300;6.614;2022-11-15T15:51:05;9.60;99.90
52943;DHT22;38809;53.300;6.614;2022-11-15T15:53:30;9.60;99.90
52943;DHT22;38809;53.300;6.614;2022-11-15T15:55:57;9.60;99.90
52943;DHT22;38809;53.300;6.614;2022-11-15T15:58:22;9.70;99.90
52943;DHT22;38809;53.300;6.614;2022-11-15T16:00:48;9.60;99.90
52943;DHT22;38809;53.300;6.614;2022-11-15T16:03:14;9.70;99.90
52943;DHT22;38809;53.300;6.614;2022-11-15T16:05:40;9.60;99.90
52943;DHT22;38809;53.300;6.614;2022-11-15T16:08:23;9.60;99.90
52943;DHT22;38809;53.300;6.614;2022-11-15T16:10:50;9.60;99.90
52943;DHT22;38809;53.300;6.614;2022-11-15T16:13:15;9.70;99.90
52943;DHT22;38809;53.300;6.614;2022-11-15T16:15:42;9.80;99.90
52943;DHT22;38809;53.300;6.614;2022-11-15T16:18:15;9.60;99.90
52943;DHT22;38809;53.300;6.614;2022-11-15T16:20:46;9.70;99.90
52943;DHT22;38809;53.300;6.614;2022-11-15T16:23:17;9.60;99.90
52943;DHT22;38809;53.300;6.614;2022-11-15T16:25:51;9.60;99.90
52943;DHT22;38809;53.300;6.614;2022-11-15T16:28:18;9.60;99.90
52943;DHT22;38809;53.300;6.614;2022-11-15T16:30:45;9.60;99.90
52943;DHT22;38809;53.300;6.614;2022-11-15T16:33:11;9.70;99.90
52943;DHT22;38809;53.300;6.614;2022-11-15T16:35:36;10.00;99.90
52943;DHT22;38809;53.300;6.614;2022-11-15T16:38:02;9.60;99.90
52943;DHT22;38809;53.300;6.614;2022-11-15T16:40:32;9.50;99.90
52943;DHT22;38809;53.300;6.614;2022-11-15T16:42:58;9.50;99.90
52943;DHT22;38809;53.300;6.614;2022-11-15T16:45:29;9.50;99.90
52943;DHT22;38809;53.300;6.614;2022-11-15T16:47:56;9.60;99.90
52943;DHT22;38809;53.300;6.614;2022-11-15T16:50:26;9.50;99.90
52943;DHT22;38809;53.300;6.614;2022-11-15T16:52:54;9.60;99.90
52943;DHT22;38809;53.300;6.614;2022-11-15T16:55:22;9.60;99.90
52943;DHT22;38809;53.300;6.614;2022-11-15T16:57:48;9.70;99.90
52943;DHT22;38809;53.300;6.614;2022-11-15T17:00:15;9.70;99.90
52943;DHT22;38809;53.300;6.614;2022-11-15T17:02:43;9.80;99.90
52943;DHT22;38809;53.300;6.614;2022-11-15T17:05:09;9.80;99.90
52943;DHT22;38809;53.300;6.614;2022-11-15T17:07:35;9.90;99.90
52943;DHT22;38809;53.300;6.614;2022-11-15T17:10:00;9.90;99.90
52943;DHT22;38809;53.300;6.614;2022-11-15T17:12:26;9.90;99.90
52943;DHT22;38809;53.300;6.614;2022-11-15T17:14:53;9.90;99.90
52943;DHT22;38809;53.300;6.614;2022-11-15T17:17:18;9.90;99.90
52943;DHT22;38809;53.300;6.614;2022-11-15T17:19:44;9.90;99.90
52943;DHT22;38809;53.300;6.614;2022-11-15T17:22:10;9.90;99.90
52943;DHT22;38809;53.300;6.614;2022-11-15T17:24:36;10.00;99.90
52943;DHT22;38809;53.300;6.614;2022-11-15T17:27:01;9.90;99.90
52943;DHT22;38809;53.300;6.614;2022-11-15T17:29:27;10.00;99.90
52943;DHT22;38809;53.300;6.614;2022-11-15T17:31:53;10.00;99.90
52943;DHT22;38809;53.300;6.614;2022-11-15T17:34:18;10.00;99.90
52943;DHT22;38809;53.300;6.614;2022-11-15T17:36:44;9.90;99.90
52943;DHT22;38809;53.300;6.614;2022-11-15T17:39:09;10.00;99.90
52943;DHT22;38809;53.300;6.614;2022-11-15T17:41:35;10.10;99.90
52943;DHT22;38809;53.300;6.614;2022-11-15T17:44:01;9.90;99.90
52943;DHT22;38809;53.300;6.614;2022-11-15T17:46:27;9.90;99.90
52943;DHT22;38809;53.300;6.614;2022-11-15T17:48:54;9.90;99.90
52943;DHT22;38809;53.300;6.614;2022-11-15T17:51:20;9.90;99.90
52943;DHT22;38809;53.300;6.614;2022-11-15T17:53:48;9.80;99.90
52943;DHT22;38809;53.300;6.614;2022-11-15T17:56:19;9.80;99.90
52943;DHT22;38809;53.300;6.614;2022-11-15T17:58:56;10.20;99.90
52943;DHT22;38809;53.300;6.614;2022-11-15T18:01:36;9.80;99.90
52943;DHT22;38809;53.300;6.614;2022-11-15T18:04:04;9.80;99.90
52943;DHT22;38809;53.300;6.614;2022-11-15T18:06:33;9.80;99.90
52943;DHT22;38809;53.300;6.614;2022-11-15T18:09:00;9.80;99.90
52943;DHT22;38809;53.300;6.614;2022-11-15T18:11:31;9.80;99.90
52943;DHT22;38809;53.300;6.614;2022-11-15T18:13:59;9.70;99.90
52943;DHT22;38809;53.300;6.614;2022-11-15T18:16:27;9.70;99.90
52943;DHT22;38809;53.300;6.614;2022-11-15T18:18:53;9.70;99.90
52943;DHT22;38809;53.300;6.614;2022-11-15T18:21:21;9.70;99.90
52943;DHT22;38809;53.300;6.614;2022-11-15T18:23:48;9.70;99.90